createdAt,value
2022-11-20T00:02:01.798Z,11.70
2022-11-20T00:04:33.985Z,13.35
2022-11-20T00:07:03.664Z,12.35
2022-11-20T00:09:33.302Z,11.35
2022-11-20T00:12:02.888Z,12.52
2022-11-20T00:14:32.444Z,12.07
2022-11-20T00:17:02.019Z,12.85
2022-11-20T00:19:34.151Z,12.30
2022-11-20T00:22:03.895Z,12.85
2022-11-20T00:24:33.592Z,13.68
2022-11-20T00:27:03.186Z,13.75
2022-11-20T00:29:32.748Z,13.15
2022-11-20T00:32:02.338Z,12.82
2022-11-20T00:34:34.464Z,12.23
2022-11-20T00:37:04.064Z,12.20
2022-11-20T00:39:33.600Z,12.60
2022-11-20T00:42:03.186Z,12.80
2022-11-20T00:44:32.991Z,13.70
2022-11-20T00:47:02.764Z,13.65
2022-11-20T00:49:34.972Z,13.70
2022-11-20T00:52:04.568Z,13.35
2022-11-20T00:54:34.136Z,12.63
2022-11-20T00:57:03.699Z,13.18
2022-11-20T00:59:33.322Z,13.55
2022-11-20T01:02:02.864Z,12.52
2022-11-20T01:04:35.189Z,13.52
2022-11-20T01:07:04.803Z,13.10
2022-11-20T01:09:34.554Z,13.82
2022-11-20T01:12:04.158Z,13.73
2022-11-20T01:14:33.736Z,13.85
2022-11-20T01:17:03.343Z,13.48
2022-11-20T01:19:35.630Z,13.15
2022-11-20T01:22:05.216Z,12.23
2022-11-20T01:24:34.866Z,12.75
2022-11-20T01:27:04.388Z,13.13
2022-11-20T01:29:34.326Z,14.20
2022-11-20T01:32:03.869Z,14.23
2022-11-20T01:34:36.563Z,13.50
2022-11-20T01:37:06.158Z,13.55
2022-11-20T01:39:35.724Z,13.27
2022-11-20T01:42:17.747Z,13.57
2022-11-20T01:44:52.388Z,14.25
2022-11-20T01:47:25.758Z,14.00
2022-11-20T01:50:00.922Z,14.07
2022-11-20T01:52:34.301Z,13.88
2022-11-20T01:55:07.043Z,13.13
2022-11-20T01:57:38.176Z,13.85
2022-11-20T02:00:11.689Z,13.82
2022-11-20T02:02:46.948Z,13.60
2022-11-20T02:05:22.102Z,14.13
2022-11-20T02:07:52.184Z,13.35
2022-11-20T02:10:22.039Z,13.80
2022-11-20T02:13:04.311Z,12.52
2022-11-20T02:15:33.927Z,12.73
2022-11-20T02:18:03.583Z,13.77
2022-11-20T02:20:36.003Z,13.40
2022-11-20T02:23:09.124Z,13.45
2022-11-20T02:25:41.780Z,13.70
2022-11-20T02:28:11.642Z,13.45
2022-11-20T02:30:41.203Z,13.65
2022-11-20T02:33:11.038Z,13.73
2022-11-20T02:35:48.128Z,13.52
2022-11-20T02:38:18.360Z,14.55
2022-11-20T02:40:55.324Z,13.55
2022-11-20T02:43:25.363Z,13.77
2022-11-20T02:45:54.959Z,14.13
2022-11-20T02:48:25.348Z,14.77
2022-11-20T02:50:55.004Z,15.45
2022-11-20T02:53:24.536Z,14.23
2022-11-20T02:55:57.081Z,15.02
2022-11-20T02:58:26.765Z,14.50
2022-11-20T03:00:56.404Z,15.32
2022-11-20T03:03:26.512Z,15.43
2022-11-20T03:05:56.038Z,15.82
2022-11-20T03:08:25.594Z,15.32
2022-11-20T03:10:57.901Z,15.32
2022-11-20T03:13:29.065Z,15.35
2022-11-20T03:15:58.633Z,15.23
2022-11-20T03:18:28.247Z,16.95
2022-11-20T03:21:01.104Z,16.17
2022-11-20T03:23:32.957Z,16.48
2022-11-20T03:26:16.374Z,15.48
2022-11-20T03:28:46.552Z,15.00
2022-11-20T03:31:17.921Z,13.93
2022-11-20T03:33:47.811Z,15.45
2022-11-20T03:36:18.730Z,14.70
2022-11-20T03:38:48.476Z,14.73
2022-11-20T03:41:21.905Z,15.38
2022-11-20T03:43:52.084Z,14.75
2022-11-20T03:46:22.373Z,14.88
2022-11-20T03:48:52.435Z,14.60
2022-11-20T03:51:24.191Z,14.15
2022-11-20T03:53:55.299Z,14.30
2022-11-20T03:56:29.246Z,14.30
2022-11-20T03:58:59.048Z,13.85
2022-11-20T04:01:30.491Z,13.80
2022-11-20T04:04:00.670Z,14.05
2022-11-20T04:06:32.622Z,13.80
2022-11-20T04:09:02.465Z,14.18
2022-11-20T04:11:36.422Z,13.77
2022-11-20T04:14:08.692Z,13.00
2022-11-20T04:16:39.522Z,13.52
2022-11-20T04:19:12.815Z,13.07
2022-11-20T04:21:42.482Z,14.20
2022-11-20T04:24:12.237Z,13.10
2022-11-20T04:26:44.466Z,13.63
2022-11-20T04:29:15.187Z,13.07
2022-11-20T04:31:44.770Z,13.13
2022-11-20T04:34:15.877Z,13.02
2022-11-20T04:36:45.434Z,12.77
2022-11-20T04:39:16.320Z,12.68
2022-11-20T04:41:48.454Z,12.35
2022-11-20T04:44:17.989Z,13.02
2022-11-20T04:46:47.604Z,12.55
2022-11-20T04:49:18.200Z,12.85
2022-11-20T04:51:47.802Z,12.07
2022-11-20T04:54:17.377Z,11.77
2022-11-20T04:56:51.265Z,11.50
2022-11-20T04:59:21.095Z,12.38
2022-11-20T05:01:51.148Z,13.40
2022-11-20T05:04:20.999Z,12.57
2022-11-20T05:06:50.538Z,13.25
2022-11-20T05:09:20.374Z,12.85
2022-11-20T05:11:52.749Z,12.77
2022-11-20T05:14:22.276Z,12.27
2022-11-20T05:16:52.140Z,12.57
2022-11-20T05:19:22.101Z,12.70
2022-11-20T05:21:51.791Z,13.60
2022-11-20T05:24:21.291Z,14.05
2022-11-20T05:26:53.402Z,13.43
2022-11-20T05:29:23.309Z,12.65
2022-11-20T05:31:53.098Z,13.32
2022-11-20T05:34:22.653Z,12.35
2022-11-20T05:36:52.404Z,12.52
2022-11-20T05:39:22.073Z,12.45
2022-11-20T05:42:14.354Z,13.00
2022-11-20T05:44:44.003Z,13.10
2022-11-20T05:47:13.613Z,12.32
2022-11-20T05:49:43.160Z,12.65
2022-11-20T05:52:12.807Z,13.15
2022-11-20T05:54:42.380Z,13.20
2022-11-20T05:57:14.571Z,13.57
2022-11-20T05:59:44.316Z,13.18
2022-11-20T06:02:13.909Z,12.95
2022-11-20T06:04:43.737Z,13.00
2022-11-20T06:07:13.351Z,13.45
2022-11-20T06:09:42.911Z,12.80
2022-11-20T06:12:15.034Z,12.95
2022-11-20T06:14:44.543Z,14.02
2022-11-20T06:17:14.077Z,13.55
2022-11-20T06:19:43.589Z,14.05
2022-11-20T06:22:13.153Z,14.02
2022-11-20T06:24:42.703Z,13.63
2022-11-20T06:27:14.886Z,13.43
2022-11-20T06:29:44.453Z,13.20
2022-11-20T06:32:14.009Z,13.70
2022-11-20T06:34:43.579Z,12.95
2022-11-20T06:37:13.099Z,13.43
2022-11-20T06:39:42.683Z,14.27
2022-11-20T06:42:14.864Z,13.65
2022-11-20T06:44:44.663Z,14.30
2022-11-20T06:47:14.212Z,13.95
2022-11-20T06:49:43.816Z,13.98
2022-11-20T06:52:13.359Z,14.48
2022-11-20T06:54:42.940Z,13.57
2022-11-20T06:57:15.484Z,13.93
2022-11-20T06:59:45.091Z,13.35
2022-11-20T07:02:15.349Z,14.73
2022-11-20T07:04:44.914Z,14.57
2022-11-20T07:07:14.493Z,14.27
2022-11-20T07:09:44.069Z,14.52
2022-11-20T07:12:16.177Z,14.50
2022-11-20T07:14:45.735Z,15.38
2022-11-20T07:17:15.658Z,15.27
2022-11-20T07:19:45.260Z,14.90
2022-11-20T07:22:14.835Z,15.07
2022-11-20T07:24:46.146Z,15.07
2022-11-20T07:27:18.435Z,15.60
2022-11-20T07:29:48.005Z,16.38
2022-11-20T07:32:17.797Z,15.38
2022-11-20T07:34:47.471Z,15.10
2022-11-20T07:37:17.703Z,15.00
2022-11-20T07:39:47.430Z,16.02
2022-11-20T07:42:19.619Z,16.23
2022-11-20T07:44:49.383Z,15.70
2022-11-20T07:47:18.918Z,15.32
2022-11-20T07:49:48.482Z,15.95
2022-11-20T07:52:18.047Z,16.02
2022-11-20T07:54:47.640Z,14.88
2022-11-20T07:57:21.227Z,14.75
2022-11-20T07:59:53.883Z,14.02
2022-11-20T08:02:23.500Z,14.30
2022-11-20T08:04:53.112Z,13.90
2022-11-20T08:07:22.817Z,14.15
2022-11-20T08:09:52.568Z,14.23
2022-11-20T08:12:37.532Z,14.35
2022-11-20T08:15:12.917Z,13.82
2022-11-20T08:17:48.912Z,13.75
2022-11-20T08:20:26.519Z,14.95
2022-11-20T08:22:56.276Z,14.20
2022-11-20T08:25:25.829Z,14.80
2022-11-20T08:28:00.368Z,13.85
2022-11-20T08:30:30.895Z,14.15
2022-11-20T08:33:04.846Z,15.18
2022-11-20T08:35:37.378Z,14.52
2022-11-20T08:38:07.626Z,14.93
2022-11-20T08:40:37.462Z,14.40
2022-11-20T08:43:09.657Z,14.82
2022-11-20T08:45:39.303Z,14.95
2022-11-20T08:48:09.342Z,14.40
2022-11-20T08:50:38.883Z,14.45
2022-11-20T08:53:08.800Z,14.38
2022-11-20T08:55:38.378Z,14.55
2022-11-20T08:58:10.595Z,14.52
2022-11-20T09:00:40.208Z,14.20
2022-11-20T09:03:09.771Z,14.25
2022-11-20T09:05:39.407Z,13.45
2022-11-20T09:08:09.054Z,15.70
2022-11-20T09:10:40.676Z,14.75
2022-11-20T09:13:12.800Z,14.10
2022-11-20T09:15:49.783Z,14.15
2022-11-20T09:18:25.033Z,13.90
2022-11-20T09:20:54.891Z,13.20
2022-11-20T09:23:24.505Z,12.80
2022-11-20T09:26:00.704Z,14.70
2022-11-20T09:28:37.883Z,14.00
2022-11-20T09:31:12.079Z,13.57
2022-11-20T09:36:23.981Z,15.93
2022-11-20T09:38:54.902Z,14.18
2022-11-20T09:41:42.440Z,16.42
2022-11-20T09:44:35.949Z,15.32
2022-11-20T09:47:25.563Z,13.65
2022-11-20T09:50:10.094Z,13.88
2022-11-20T09:52:45.697Z,14.30
2022-11-20T09:55:19.265Z,15.02
2022-11-20T09:57:51.985Z,13.45
2022-11-20T10:00:25.034Z,13.75
2022-11-20T10:03:03.783Z,13.68
2022-11-20T10:05:46.188Z,13.60
2022-11-20T10:08:27.776Z,14.40
2022-11-20T10:11:05.675Z,14.35
2022-11-20T10:13:43.982Z,13.57
2022-11-20T10:16:25.263Z,13.07
2022-11-20T10:19:06.292Z,12.27
2022-11-20T10:21:45.022Z,12.70
2022-11-20T10:24:47.264Z,12.00
2022-11-20T10:27:39.762Z,12.88
2022-11-20T10:30:13.432Z,11.43
2022-11-20T10:32:47.681Z,12.07
2022-11-20T10:35:25.836Z,10.15
2022-11-20T10:38:00.049Z,9.40
2022-11-20T10:40:35.313Z,10.60
2022-11-20T10:43:14.100Z,12.40
2022-11-20T10:45:52.218Z,12.57
2022-11-20T10:48:27.392Z,11.85
2022-11-20T10:51:04.136Z,12.50
2022-11-20T10:53:49.106Z,12.75
2022-11-20T10:56:23.768Z,12.07
2022-11-20T10:59:05.094Z,12.48
2022-11-20T11:01:34.747Z,12.50
2022-11-20T11:04:07.495Z,12.55
2022-11-20T11:06:39.564Z,12.65
2022-11-20T11:09:25.290Z,12.55
2022-11-20T11:11:55.212Z,12.20
2022-11-20T11:14:25.616Z,13.30
2022-11-20T11:16:57.014Z,13.27
2022-11-20T11:19:29.414Z,13.35
2022-11-20T11:22:00.526Z,13.20
2022-11-20T11:24:42.338Z,12.98
2022-11-20T11:27:18.873Z,14.02
2022-11-20T11:29:49.116Z,12.73
2022-11-20T11:32:21.656Z,12.50
2022-11-20T11:35:05.392Z,13.15
2022-11-20T11:37:38.411Z,13.32
2022-11-20T11:40:23.851Z,13.43
2022-11-20T11:42:58.736Z,14.07
2022-11-20T11:45:25.833Z,15.02
2022-11-20T11:47:56.657Z,13.05
2022-11-20T11:50:29.736Z,13.02
2022-11-20T11:53:11.193Z,12.90
2022-11-20T11:55:44.621Z,13.93
2022-11-20T11:58:20.167Z,13.30
2022-11-20T12:00:55.422Z,13.88
2022-11-20T12:03:28.429Z,13.27
2022-11-20T12:06:02.495Z,13.70
2022-11-20T12:08:36.603Z,13.45
2022-11-20T12:11:09.549Z,13.63
2022-11-20T12:13:51.211Z,14.40
2022-11-20T12:16:23.198Z,14.95
2022-11-20T12:18:54.966Z,14.27
2022-11-20T12:21:34.639Z,13.48
2022-11-20T12:24:14.271Z,13.13
2022-11-20T12:26:53.207Z,14.30
2022-11-20T12:29:31.384Z,13.68
2022-11-20T12:32:15.711Z,15.43
2022-11-20T12:34:54.652Z,14.40
2022-11-20T12:37:37.285Z,14.73
2022-11-20T12:40:19.828Z,14.32
2022-11-20T12:43:09.589Z,14.27
2022-11-20T12:45:54.304Z,14.75
2022-11-20T12:48:59.435Z,15.25
2022-11-20T12:54:22.166Z,13.73
2022-11-20T12:57:00.797Z,14.93
2022-11-20T12:59:43.135Z,15.68
2022-11-20T13:02:19.587Z,15.43
2022-11-20T13:04:59.935Z,15.88
2022-11-20T13:07:31.228Z,15.32
2022-11-20T13:10:07.580Z,15.10
2022-11-20T13:12:44.329Z,15.90
2022-11-20T13:17:58.427Z,14.90
2022-11-20T13:20:28.058Z,16.17
2022-11-20T13:22:59.795Z,15.93
2022-11-20T13:25:33.823Z,16.90
2022-11-20T13:28:05.411Z,17.08
2022-11-20T13:30:35.506Z,17.20
2022-11-20T13:33:09.990Z,17.77
2022-11-20T13:35:40.577Z,18.25
2022-11-20T13:38:12.281Z,17.25
2022-11-20T13:40:55.717Z,18.23
2022-11-20T13:43:37.823Z,16.85
2022-11-20T13:46:08.995Z,17.40
2022-11-20T13:48:43.795Z,18.23
2022-11-20T13:51:24.674Z,17.23
2022-11-20T13:54:11.083Z,18.50
2022-11-20T13:56:52.495Z,17.80
2022-11-20T13:59:35.969Z,17.30
2022-11-20T14:02:05.905Z,20.45
2022-11-20T14:04:37.769Z,18.25
2022-11-20T14:07:09.748Z,18.85
2022-11-20T14:09:39.666Z,19.33
2022-11-20T14:12:20.699Z,18.77
2022-11-20T14:14:55.410Z,18.85
2022-11-20T14:17:27.160Z,19.08
2022-11-20T14:19:57.101Z,19.90
2022-11-20T14:22:28.835Z,19.35
2022-11-20T14:25:19.095Z,21.30
2022-11-20T14:27:55.158Z,20.92
2022-11-20T14:30:26.215Z,21.00
2022-11-20T14:32:58.348Z,20.50
2022-11-20T14:35:29.579Z,19.15
2022-11-20T14:37:59.725Z,18.42
2022-11-20T14:40:32.538Z,18.70
2022-11-20T14:43:04.813Z,23.35
2022-11-20T14:45:34.472Z,22.90
2022-11-20T14:48:04.216Z,25.33
2022-11-20T14:50:34.405Z,28.88
2022-11-20T14:53:04.824Z,19.08
2022-11-20T14:55:36.494Z,18.50
2022-11-20T14:58:10.247Z,17.58
2022-11-20T15:00:39.854Z,20.33
2022-11-20T15:03:19.202Z,16.42
2022-11-20T15:05:51.383Z,17.08
2022-11-20T15:08:21.552Z,16.52
2022-11-20T15:10:53.215Z,16.05
2022-11-20T15:13:30.092Z,15.50
2022-11-20T15:16:00.321Z,16.10
2022-11-20T15:18:33.061Z,15.98
2022-11-20T15:21:05.154Z,17.52
2022-11-20T15:23:34.760Z,17.73
2022-11-20T15:26:04.338Z,17.88
2022-11-20T15:28:38.254Z,18.92
2022-11-20T15:31:08.426Z,16.48
2022-11-20T15:33:38.027Z,17.08
2022-11-20T15:36:08.543Z,16.95
2022-11-20T15:38:38.164Z,15.60
2022-11-20T15:41:08.123Z,14.82
2022-11-20T15:43:40.390Z,16.13
2022-11-20T15:46:13.546Z,15.30
2022-11-20T15:48:48.287Z,16.23
2022-11-20T15:51:25.679Z,15.88
2022-11-20T15:53:55.401Z,16.15
2022-11-20T15:56:24.988Z,16.58
2022-11-20T15:58:57.223Z,16.98
2022-11-20T16:01:26.864Z,17.25
2022-11-20T16:03:56.481Z,17.98
2022-11-20T16:06:26.045Z,17.33
2022-11-20T16:08:55.653Z,16.45
2022-11-20T16:11:25.207Z,17.70
2022-11-20T16:14:09.799Z,17.48
2022-11-20T16:19:14.003Z,17.20
2022-11-20T16:21:44.022Z,18.20
2022-11-20T16:24:14.860Z,17.83
2022-11-20T16:26:44.578Z,18.38
2022-11-20T16:29:17.563Z,17.42
2022-11-20T16:31:47.367Z,17.83
2022-11-20T16:34:19.905Z,23.17
2022-11-20T16:36:49.717Z,18.60
2022-11-20T16:39:23.684Z,17.55
2022-11-20T16:41:53.811Z,18.88
2022-11-20T16:44:26.323Z,19.42
2022-11-20T16:46:56.275Z,17.75
2022-11-20T16:49:26.197Z,20.77
2022-11-20T16:51:55.796Z,19.10
2022-11-20T16:54:25.797Z,16.20
2022-11-20T16:56:55.552Z,18.17
2022-11-20T16:59:27.740Z,18.13
2022-11-20T17:01:57.500Z,15.93
2022-11-20T17:04:27.107Z,15.90
2022-11-20T17:06:57.006Z,16.23
2022-11-20T17:09:26.844Z,17.30
2022-11-20T17:11:56.579Z,16.48
2022-11-20T17:14:28.728Z,16.13
2022-11-20T17:16:58.493Z,15.98
2022-11-20T17:19:28.333Z,15.73
2022-11-20T17:21:58.085Z,15.30
2022-11-20T17:24:31.838Z,14.70
2022-11-20T17:29:39.165Z,12.65
2022-11-20T17:32:11.607Z,12.77
2022-11-20T17:34:41.217Z,12.75
2022-11-20T17:37:10.769Z,11.60
2022-11-20T17:39:40.971Z,12.20
2022-11-20T17:42:23.000Z,12.88
2022-11-20T17:44:55.312Z,10.80
2022-11-20T17:47:24.916Z,11.90
2022-11-20T17:49:55.460Z,10.70
2022-11-20T17:52:25.297Z,10.52
2022-11-20T17:54:56.084Z,11.18
2022-11-20T17:57:38.418Z,10.90
2022-11-20T18:00:13.309Z,10.48
2022-11-20T18:02:42.936Z,10.52
2022-11-20T18:05:12.617Z,12.80
2022-11-20T18:07:42.604Z,10.85
2022-11-20T18:10:13.036Z,9.73
2022-11-20T18:12:42.617Z,10.18
2022-11-20T18:15:15.281Z,8.55
2022-11-20T18:17:44.846Z,8.88
2022-11-20T18:20:28.609Z,9.50
2022-11-20T18:23:02.408Z,12.80
2022-11-20T18:25:32.001Z,8.85
2022-11-20T18:28:01.596Z,9.02
2022-11-20T18:30:33.779Z,7.80
2022-11-20T18:33:04.030Z,8.80
2022-11-20T18:35:36.378Z,8.00
2022-11-20T18:38:05.995Z,9.50
2022-11-20T18:40:37.533Z,10.75
2022-11-20T18:43:19.582Z,10.20
2022-11-20T18:45:52.640Z,10.07
2022-11-20T18:48:22.299Z,9.82
2022-11-20T18:50:52.012Z,10.43
2022-11-20T18:53:22.063Z,10.85
2022-11-20T18:55:51.976Z,10.32
2022-11-20T18:58:21.623Z,10.48
2022-11-20T19:00:53.771Z,10.95
2022-11-20T19:03:23.535Z,12.00
2022-11-20T19:05:53.332Z,10.95
2022-11-20T19:08:22.911Z,10.55
2022-11-20T19:10:52.482Z,11.65
2022-11-20T19:13:22.285Z,12.68
2022-11-20T19:15:54.609Z,14.90
2022-11-20T19:18:24.396Z,14.10
2022-11-20T19:20:53.968Z,17.80
2022-11-20T19:23:23.937Z,15.50
2022-11-20T19:25:56.131Z,15.65
2022-11-20T19:28:25.731Z,14.35
2022-11-20T19:30:58.144Z,13.10
2022-11-20T19:33:28.052Z,13.18
2022-11-20T19:36:00.808Z,12.43
2022-11-20T19:38:30.511Z,13.50
2022-11-20T19:41:00.643Z,12.38
2022-11-20T19:43:30.341Z,12.93
2022-11-20T19:46:02.825Z,12.75
2022-11-20T19:48:33.955Z,11.50
2022-11-20T19:51:11.602Z,11.68
2022-11-20T19:53:41.439Z,11.00
2022-11-20T19:56:11.106Z,10.93
2022-11-20T19:58:41.832Z,10.70
2022-11-20T20:01:16.955Z,10.02
2022-11-20T20:03:47.483Z,9.57
2022-11-20T20:06:18.832Z,9.52
2022-11-20T20:08:48.558Z,9.27
2022-11-20T20:11:20.047Z,8.90
2022-11-20T20:13:50.099Z,9.05
2022-11-20T20:16:24.402Z,10.45
2022-11-20T20:21:26.347Z,9.15
2022-11-20T20:23:56.937Z,10.52
2022-11-20T20:26:27.471Z,9.23
2022-11-20T20:28:57.294Z,8.80
2022-11-20T20:31:30.828Z,9.40
2022-11-20T20:34:00.525Z,8.57
2022-11-20T20:36:30.829Z,8.98
2022-11-20T20:39:02.841Z,8.85
2022-11-20T20:41:32.720Z,8.68
2022-11-20T20:44:14.789Z,8.40
2022-11-20T20:46:47.013Z,7.93
2022-11-20T20:49:16.747Z,8.35
2022-11-20T20:51:46.362Z,8.52
2022-11-20T20:54:16.022Z,7.90
2022-11-20T20:56:45.647Z,8.05
2022-11-20T20:59:15.180Z,8.27
2022-11-20T21:01:47.420Z,8.32
2022-11-20T21:04:17.174Z,8.98
2022-11-20T21:06:46.813Z,8.48
2022-11-20T21:09:16.369Z,8.63
2022-11-20T21:11:45.987Z,8.73
2022-11-20T21:14:15.551Z,9.05
2022-11-20T21:16:47.982Z,9.10
2022-11-20T21:19:17.955Z,7.90
2022-11-20T21:21:59.802Z,7.95
2022-11-20T21:24:29.956Z,7.90
2022-11-20T21:27:00.392Z,7.65
2022-11-20T21:29:31.462Z,6.72
2022-11-20T21:32:03.689Z,7.47
2022-11-20T21:34:33.360Z,7.53
2022-11-20T21:37:02.954Z,7.55
2022-11-20T21:39:33.055Z,6.57
2022-11-20T21:42:02.604Z,7.45
2022-11-20T21:44:32.313Z,7.10
2022-11-20T21:47:04.597Z,7.20
2022-11-20T21:49:34.240Z,7.15
2022-11-20T21:52:04.028Z,6.38
2022-11-20T21:54:35.755Z,7.10
2022-11-20T21:57:05.323Z,7.00
2022-11-20T21:59:34.901Z,6.82
2022-11-20T22:02:07.961Z,7.07
2022-11-20T22:04:37.595Z,6.72
2022-11-20T22:07:08.584Z,6.60
2022-11-20T22:09:38.169Z,6.50
2022-11-20T22:12:09.968Z,6.13
2022-11-20T22:14:36.939Z,5.65
2022-11-20T22:17:09.187Z,5.25
2022-11-20T22:19:38.765Z,5.57
2022-11-20T22:22:08.330Z,5.30
2022-11-20T22:24:37.960Z,5.07
2022-11-20T22:27:07.548Z,5.25
2022-11-20T22:29:37.181Z,5.30
2022-11-20T22:32:09.366Z,5.47
2022-11-20T22:34:38.920Z,5.50
2022-11-20T22:37:08.496Z,5.18
2022-11-20T22:39:39.453Z,5.10
2022-11-20T22:42:09.024Z,5.93
2022-11-20T22:44:38.625Z,5.20
2022-11-20T22:47:11.624Z,5.65
2022-11-20T22:49:41.339Z,4.70
2022-11-20T22:52:11.076Z,4.70
2022-11-20T22:54:40.775Z,4.93
2022-11-20T22:57:10.369Z,5.10
2022-11-20T22:59:40.729Z,5.45
2022-11-20T23:02:12.936Z,5.53
2022-11-20T23:04:42.494Z,5.50
2022-11-20T23:07:12.221Z,5.10
2022-11-20T23:09:41.796Z,5.15
2022-11-20T23:12:11.397Z,5.28
2022-11-20T23:14:40.953Z,5.45
2022-11-20T23:17:13.519Z,5.10
2022-11-20T23:19:43.095Z,4.32
2022-11-20T23:22:12.749Z,4.72
2022-11-20T23:24:42.421Z,5.30
2022-11-20T23:27:12.176Z,5.05
2022-11-20T23:29:41.775Z,5.40
2022-11-20T23:32:13.995Z,5.35
2022-11-20T23:34:43.593Z,5.45
2022-11-20T23:37:13.148Z,5.43
2022-11-20T23:39:42.714Z,6.18
2022-11-20T23:42:13.914Z,5.88
2022-11-20T23:44:43.631Z,6.40
2022-11-20T23:47:15.873Z,6.75
2022-11-20T23:49:45.446Z,6.13
2022-11-20T23:52:15.240Z,6.45
2022-11-20T23:54:44.848Z,5.88
2022-11-20T23:57:14.399Z,7.00
2022-11-20T23:59:44.043Z,6.93
